Time;durP1;ratioP1;P1;durP2;ratioP2;P2;SDS_P1;SDS_P2;PMS_P1;PMS_P2;Temp;Humidity;BMP_temperature;BMP_pressure;BME280_temperature;BME280_humidity;BME280_pressure;Samples;Min_cycle;Max_cycle;Signal;HPM_P1;HPM_P2
2023/01/03 00:00:36;;;;;;;27.77;10.07;;;7.30;99.90;;;;;;5021688;28;20231;-84
2023/01/03 00:03:04;;;;;;;30.67;9.17;;;7.30;99.90;;;;;;5015915;28;20217;-84
2023/01/03 00:05:33;;;;;;;26.60;9.57;;;7.20;99.90;;;;;;5031156;28;20208;-84
2023/01/03 00:08:00;;;;;;;25.47;9.10;;;7.20;99.90;;;;;;5045021;28;20216;-85
2023/01/03 00:10:29;;;;;;;22.93;8.87;;;7.10;99.90;;;;;;5040619;28;20239;-85
2023/01/03 00:12:57;;;;;;;29.43;9.97;;;7.10;99.90;;;;;;5020822;28;20284;-85
2023/01/03 00:15:23;;;;;;;27.03;9.70;;;7.00;99.90;;;;;;5018873;28;20218;-84
2023/01/03 00:17:51;;;;;;;23.43;9.17;;;7.00;99.90;;;;;;5023492;28;20319;-84
2023/01/03 00:20:19;;;;;;;28.33;10.00;;;6.90;99.90;;;;;;5022587;28;20724;-84
2023/01/03 00:22:46;;;;;;;25.67;9.30;;;6.90;99.90;;;;;;5025218;28;20269;-84
2023/01/03 00:25:13;;;;;;;25.47;9.97;;;6.90;99.90;;;;;;5023453;28;20238;-84
2023/01/03 00:27:40;;;;;;;26.43;9.93;;;6.90;99.90;;;;;;5034529;28;20280;-85
2023/01/03 00:30:09;;;;;;;26.13;9.57;;;;;;;;;;5040152;28;20239;-84
2023/01/03 00:32:36;;;;;;;25.13;8.83;;;6.90;99.90;;;;;;5035876;28;20670;-84
2023/01/03 00:35:03;;;;;;;23.10;8.70;;;7.00;99.90;;;;;;5020414;28;20301;-84
2023/01/03 00:37:30;;;;;;;27.27;9.63;;;7.00;99.90;;;;;;5034607;28;20199;-84
2023/01/03 00:39:57;;;;;;;27.77;8.77;;;7.00;99.90;;;;;;5022368;28;20225;-84
2023/01/03 00:42:24;;;;;;;21.73;8.77;;;7.10;99.90;;;;;;5024655;28;20208;-85
2023/01/03 00:44:51;;;;;;;27.13;10.50;;;7.10;99.90;;;;;;5045251;28;20315;-85
2023/01/03 00:47:21;;;;;;;26.23;9.53;;;7.20;99.90;;;;;;5027916;28;20205;-84
2023/01/03 00:49:48;;;;;;;25.27;9.13;;;7.30;99.90;;;;;;5027289;28;20672;-85
2023/01/03 00:52:15;;;;;;;21.03;8.50;;;7.30;99.90;;;;;;5025365;28;20201;-84
2023/01/03 00:54:42;;;;;;;20.30;8.00;;;7.40;99.90;;;;;;5019305;28;20222;-85
2023/01/03 00:57:08;;;;;;;22.20;8.83;;;7.40;99.90;;;;;;5014014;28;20214;-84
2023/01/03 00:59:35;;;;;;;28.10;9.77;;;7.50;99.90;;;;;;5018985;28;20568;-83
2023/01/03 01:02:03;;;;;;;25.43;9.17;;;7.50;99.90;;;;;;5027548;28;20221;-84
2023/01/03 01:04:32;;;;;;;18.93;8.07;;;7.50;99.90;;;;;;5061926;28;20268;-84
2023/01/03 01:07:00;;;;;;;19.27;8.50;;;7.50;99.90;;;;;;5061244;28;20266;-84
2023/01/03 01:09:29;;;;;;;24.53;9.23;;;7.50;99.90;;;;;;5018403;28;20236;-84
2023/01/03 01:11:56;;;;;;;24.13;8.40;;;7.50;99.90;;;;;;5022203;28;20225;-83
2023/01/03 01:14:26;;;;;;;20.10;8.13;;;7.60;99.90;;;;;;5025663;28;20202;-83
2023/01/03 01:16:55;;;;;;;21.50;8.73;;;7.60;99.90;;;;;;5025882;28;20220;-83
2023/01/03 01:19:24;;;;;;;19.53;8.20;;;7.70;99.90;;;;;;5024077;28;20461;-84
2023/01/03 01:21:53;;;;;;;22.07;8.57;;;7.70;99.90;;;;;;5037034;28;20580;-83
2023/01/03 01:24:20;;;;;;;20.53;7.97;;;7.70;99.90;;;;;;5037887;28;20214;-84
2023/01/03 01:26:48;;;;;;;21.43;8.47;;;7.70;99.90;;;;;;5018761;28;20212;-84
2023/01/03 01:29:16;;;;;;;20.90;8.13;;;7.60;99.90;;;;;;5033458;28;20260;-84
2023/01/03 01:31:45;;;;;;;22.40;8.63;;;7.60;99.90;;;;;;5042678;28;20222;-84
2023/01/03 01:34:12;;;;;;;21.03;8.00;;;7.60;99.90;;;;;;5028807;28;20222;-84
2023/01/03 01:36:41;;;;;;;19.37;8.00;;;7.60;99.90;;;;;;5012686;28;20304;-84
2023/01/03 01:39:13;;;;;;;16.77;6.30;;;7.50;99.90;;;;;;5024146;28;20215;-84
2023/01/03 01:44:48;;;;;;;17.60;6.43;;;7.50;99.90;;;;;;5033273;28;20202;-84
2023/01/03 01:47:20;;;;;;;20.17;6.53;;;7.50;99.90;;;;;;5038731;28;20533;-84
2023/01/03 01:49:51;;;;;;;19.23;7.47;;;7.70;99.90;;;;;;5040676;28;20607;-84
2023/01/03 01:52:20;;;;;;;19.40;7.43;;;7.90;99.90;;;;;;5024375;28;20205;-84
2023/01/03 01:54:51;;;;;;;21.90;7.60;;;7.80;99.90;;;;;;5040902;28;20511;-84
2023/01/03 01:57:21;;;;;;;24.60;8.53;;;7.90;99.90;;;;;;5032516;28;20693;-85
2023/01/03 01:59:49;;;;;;;22.13;7.73;;;8.00;99.90;;;;;;5029847;28;20205;-84
2023/01/03 02:02:21;;;;;;;21.03;8.53;;;8.00;99.90;;;;;;5024535;28;20229;-84
2023/01/03 02:04:53;;;;;;;19.97;8.23;;;8.00;99.90;;;;;;5018949;28;20209;-83
2023/01/03 02:07:22;;;;;;;25.73;10.13;;;8.00;99.90;;;;;;5012057;28;20884;-85
2023/01/03 02:09:55;;;;;;;23.17;7.80;;;8.00;99.90;;;;;;5016841;28;20319;-85
2023/01/03 02:15:27;;;;;;;18.27;8.10;;;8.10;99.90;;;;;;5051529;28;20211;-82
2023/01/03 02:18:04;;;;;;;20.67;8.07;;;8.10;99.90;;;;;;5031613;28;20217;-83
2023/01/03 02:20:49;;;;;;;21.73;9.50;;;8.20;99.90;;;;;;5039334;28;20236;-82
2023/01/03 02:23:43;;;;;;;26.80;9.70;;;8.20;99.90;;;;;;5035160;28;20227;-83
2023/01/03 02:26:33;;;;;;;21.20;8.17;;;8.10;99.90;;;;;;5026895;28;20853;-83
2023/01/03 02:29:32;;;;;;;23.37;7.80;;;8.00;99.90;;;;;;5017833;28;20214;-83
2023/01/03 02:32:07;;;;;;;22.23;8.37;;;8.00;99.90;;;;;;5051380;28;20912;-84
2023/01/03 02:34:40;;;;;;;19.13;7.10;;;7.90;99.90;;;;;;5048604;28;20216;-83
2023/01/03 02:37:18;;;;;;;29.30;8.63;;;7.80;99.90;;;;;;5026996;28;20219;-83
2023/01/03 02:39:50;;;;;;;28.23;8.43;;;7.80;99.90;;;;;;5024780;28;20246;-83
2023/01/03 02:45:15;;;;;;;22.10;7.60;;;7.80;99.90;;;;;;5022432;28;20209;-82
2023/01/03 02:47:48;;;;;;;22.60;7.40;;;7.70;99.90;;;;;;5020021;28;20602;-83
2023/01/03 02:50:16;;;;;;;23.20;7.90;;;7.70;99.90;;;;;;5042228;28;20602;-83
2023/01/03 02:52:45;;;;;;;22.40;7.83;;;7.70;99.90;;;;;;5022932;28;20216;-83
2023/01/03 02:55:17;;;;;;;24.20;8.23;;;7.60;99.90;;;;;;5025374;28;20212;-82
2023/01/03 02:57:50;;;;;;;22.47;8.30;;;7.60;99.90;;;;;;5034511;28;20208;-85
2023/01/03 03:00:20;;;;;;;19.97;7.97;;;7.50;99.90;;;;;;5025753;28;20229;-83
2023/01/03 03:02:52;;;;;;;20.97;7.30;;;7.50;99.90;;;;;;5038853;28;20224;-83
2023/01/03 03:05:24;;;;;;;22.70;7.50;;;7.50;99.90;;;;;;5027650;28;20205;-83
2023/01/03 03:07:52;;;;;;;24.13;8.00;;;7.50;99.90;;;;;;5013407;28;20216;-83
2023/01/03 03:13:15;;;;;;;25.03;7.93;;;7.40;99.90;;;;;;5042079;28;20201;-83
2023/01/03 03:15:49;;;;;;;19.90;7.17;;;7.40;99.90;;;;;;5050535;28;20308;-83
2023/01/03 03:18:25;;;;;;;18.83;6.70;;;7.40;99.90;;;;;;5025166;28;20205;-83
2023/01/03 03:26:34;;;;;;;24.27;6.93;;;7.50;99.90;;;;;;5033154;28;20721;-83
2023/01/03 03:29:04;;;;;;;18.30;6.57;;;7.40;99.90;;;;;;5028141;28;20216;-83
2023/01/03 03:31:36;;;;;;;21.40;6.97;;;7.30;99.90;;;;;;5017152;28;20276;-83
2023/01/03 03:34:09;;;;;;;24.17;7.70;;;7.00;99.90;;;;;;5025402;28;20295;-83
2023/01/03 03:36:43;;;;;;;20.63;6.40;;;6.90;99.90;;;;;;5026407;28;20597;-83
2023/01/03 03:45:07;;;;;;;25.10;7.90;;;6.70;99.90;;;;;;4998304;28;20247;-83
2023/01/03 03:47:42;;;;;;;22.83;7.77;;;6.50;99.90;;;;;;4969077;28;20569;-85
2023/01/03 03:50:18;;;;;;;25.40;7.97;;;6.40;99.90;;;;;;5013023;28;20231;-82
2023/01/03 03:52:48;;;;;;;30.70;8.77;;;6.10;99.90;;;;;;5028283;28;20199;-83
2023/01/03 03:55:18;;;;;;;22.47;7.77;;;6.20;99.90;;;;;;5028015;28;20212;-83
2023/01/03 03:57:51;;;;;;;33.30;10.37;;;6.10;99.90;;;;;;5042329;28;20205;-83
2023/01/03 04:00:23;;;;;;;28.50;8.53;;;6.00;99.90;;;;;;5015084;28;20235;-83
2023/01/03 04:02:52;;;;;;;34.13;9.40;;;5.90;99.90;;;;;;5021023;28;20236;-83
2023/01/03 04:05:23;;;;;;;26.97;8.77;;;5.80;99.90;;;;;;5032543;28;20660;-83
2023/01/03 04:07:50;;;;;;;34.43;11.03;;;5.80;99.90;;;;;;5035262;28;20651;-83
2023/01/03 04:10:19;;;;;;;27.60;8.93;;;5.70;99.90;;;;;;5022665;28;20237;-83
2023/01/03 04:12:47;;;;;;;30.97;10.93;;;5.70;99.90;;;;;;5023090;28;20219;-84
2023/01/03 04:15:14;;;;;;;27.07;9.63;;;5.60;99.90;;;;;;5046484;28;20195;-84
2023/01/03 04:17:42;;;;;;;28.93;9.70;;;5.60;99.90;;;;;;5044234;28;20215;-84
2023/01/03 04:20:10;;;;;;;32.27;9.60;;;5.50;99.90;;;;;;5021079;28;20238;-84
2023/01/03 04:22:38;;;;;;;24.03;9.27;;;5.50;99.90;;;;;;5044083;28;20228;-84
2023/01/03 04:25:06;;;;;;;21.50;9.17;;;5.40;99.90;;;;;;5041559;28;20668;-84
2023/01/03 04:27:34;;;;;;;32.27;10.03;;;5.30;99.90;;;;;;5038230;28;20204;-84
2023/01/03 04:30:01;;;;;;;29.47;9.87;;;5.30;99.90;;;;;;5030471;28;20225;-84
2023/01/03 04:32:28;;;;;;;29.73;10.50;;;5.20;99.90;;;;;;5044711;28;20247;-84
2023/01/03 04:34:55;;;;;;;30.20;10.23;;;5.70;99.90;;;;;;5042964;28;20541;-84
2023/01/03 04:37:22;;;;;;;31.87;9.70;;;4.20;99.90;;;;;;5035249;28;20270;-84
2023/01/03 04:39:50;;;;;;;34.03;10.50;;;5.00;99.90;;;;;;5039763;28;20206;-84
2023/01/03 04:45:02;;;;;;;29.37;10.43;;;5.00;99.90;;;;;;5050003;28;20848;-85
2023/01/03 04:47:29;;;;;;;25.60;9.83;;;4.90;99.90;;;;;;5022621;28;20212;-84
2023/01/03 04:49:56;;;;;;;38.30;10.53;;;4.90;99.90;;;;;;5028773;28;20214;-84
2023/01/03 04:52:23;;;;;;;24.57;10.10;;;4.90;99.90;;;;;;5023227;28;20243;-84
2023/01/03 04:54:51;;;;;;;29.57;11.20;;;4.80;99.90;;;;;;5032254;28;20289;-84
2023/01/03 04:57:18;;;;;;;30.33;10.87;;;4.70;99.90;;;;;;5037193;28;20210;-84
2023/01/03 04:59:45;;;;;;;29.73;10.33;;;4.70;99.90;;;;;;5018375;28;20206;-84
2023/01/03 05:02:12;;;;;;;27.03;10.73;;;4.70;99.90;;;;;;5025695;28;20213;-84
2023/01/03 05:04:39;;;;;;;28.73;10.83;;;4.80;99.90;;;;;;5030172;28;20221;-85
2023/01/03 05:07:07;;;;;;;25.47;10.43;;;4.60;99.90;;;;;;5016247;28;20230;-86
2023/01/03 05:09:34;;;;;;;26.43;11.30;;;4.70;99.90;;;;;;5047386;28;20209;-83
2023/01/03 05:12:03;;;;;;;29.93;10.73;;;4.60;99.90;;;;;;5053663;28;20237;-84
2023/01/03 05:14:30;;;;;;;30.60;11.57;;;4.60;99.90;;;;;;5046576;28;20205;-86
2023/01/03 05:16:57;;;;;;;27.77;10.73;;;4.60;99.90;;;;;;5035629;28;20213;-84
2023/01/03 05:19:24;;;;;;;27.80;10.77;;;4.60;99.90;;;;;;5039287;28;20208;-85
2023/01/03 05:27:21;;;;;;;30.70;11.90;;;4.60;99.90;;;;;;5026668;28;20281;-86
2023/01/03 05:29:50;;;;;;;31.93;11.50;;;4.60;99.90;;;;;;5022195;28;20205;-85
2023/01/03 05:32:17;;;;;;;33.90;12.57;;;4.50;99.90;;;;;;5041023;28;20192;-86
2023/01/03 05:34:44;;;;;;;26.30;11.70;;;4.50;99.90;;;;;;5051109;28;20211;-84
2023/01/03 05:37:11;;;;;;;31.57;11.67;;;3.70;99.90;;;;;;5049584;28;20202;-85
2023/01/03 05:39:38;;;;;;;34.27;12.80;;;4.70;99.90;;;;;;5041602;28;20221;-84
2023/01/03 05:42:08;;;;;;;36.03;13.60;;;4.80;99.90;;;;;;5024218;28;20238;-84
2023/01/03 05:44:37;;;;;;;32.97;12.93;;;4.90;99.90;;;;;;5028281;28;20248;-83
2023/01/03 05:47:05;;;;;;;33.87;13.00;;;4.90;99.90;;;;;;5039001;28;20978;-86
2023/01/03 05:49:33;;;;;;;34.47;13.33;;;5.00;99.90;;;;;;5045414;28;20205;-84
2023/01/03 05:52:00;;;;;;;34.63;13.57;;;5.10;99.90;;;;;;5026235;28;20231;-85
2023/01/03 05:54:27;;;;;;;30.30;11.73;;;5.30;99.90;;;;;;5044420;28;20213;-83
2023/01/03 05:56:53;;;;;;;33.53;10.97;;;5.40;99.90;;;;;;5062064;28;20214;-86
2023/01/03 05:59:21;;;;;;;30.83;12.10;;;5.40;99.90;;;;;;5059761;28;20233;-83
2023/01/03 06:01:50;;;;;;;27.70;10.83;;;5.40;99.90;;;;;;5029033;28;20243;-85
2023/01/03 06:04:17;;;;;;;31.80;10.90;;;5.40;99.90;;;;;;5030485;28;20747;-85
2023/01/03 06:06:44;;;;;;;27.47;9.87;;;5.30;99.90;;;;;;5027005;28;20215;-85
2023/01/03 06:09:32;;;;;;;23.23;9.90;;;5.10;99.90;;;;;;5029031;28;20244;-84
2023/01/03 06:11:59;;;;;;;32.00;11.37;;;5.00;99.90;;;;;;5039162;28;20229;-84
2023/01/03 06:14:26;;;;;;;31.57;11.47;;;5.00;99.90;;;;;;5046695;28;20280;-85
2023/01/03 06:19:38;;;;;;;41.53;13.47;;;4.80;99.90;;;;;;5028287;28;20260;-84
2023/01/03 06:22:05;;;;;;;44.17;14.27;;;4.70;99.90;;;;;;5024033;28;20318;-84
2023/01/03 06:24:32;;;;;;;30.47;11.60;;;4.70;99.90;;;;;;5036705;28;20228;-86
2023/01/03 06:26:59;;;;;;;32.73;12.70;;;4.70;99.90;;;;;;5049218;28;20203;-85
2023/01/03 06:29:26;;;;;;;30.43;12.57;;;4.70;99.90;;;;;;5034739;28;20248;-85
2023/01/03 06:31:57;;;;;;;30.10;12.87;;;4.70;99.90;;;;;;5024087;28;20241;-86
2023/01/03 06:34:23;;;;;;;36.80;12.90;;;4.80;99.90;;;;;;5029809;28;20199;-85
2023/01/03 06:36:52;;;;;;;36.87;13.30;;;5.00;99.90;;;;;;5031043;28;20724;-86
2023/01/03 06:39:19;;;;;;;36.07;13.77;;;5.00;99.90;;;;;;5032013;28;20211;-85
2023/01/03 06:41:46;;;;;;;35.17;13.17;;;5.20;99.90;;;;;;5046364;28;20232;-85
2023/01/03 06:44:13;;;;;;;32.33;13.13;;;5.40;99.90;;;;;;5029042;28;20246;-87
2023/01/03 06:54:59;;;;;;;29.77;11.57;;;5.70;99.90;;;;;;5029991;28;20237;-86
2023/01/03 06:57:25;;;;;;;25.10;11.30;;;5.60;99.90;;;;;;5029783;28;20217;-87
2023/01/03 06:59:52;;;;;;;32.53;12.43;;;5.60;99.90;;;;;;5033963;28;20306;-86
2023/01/03 07:02:19;;;;;;;30.70;12.17;;;5.60;99.90;;;;;;5026505;28;20215;-84
2023/01/03 07:04:47;;;;;;;30.90;11.97;;;5.70;99.90;;;;;;5044964;28;20228;-85
2023/01/03 07:07:14;;;;;;;34.13;12.20;;;5.70;99.90;;;;;;5042653;28;20206;-85
2023/01/03 07:09:41;;;;;;;30.87;11.00;;;5.80;99.90;;;;;;5042224;28;20231;-86
2023/01/03 07:14:49;;;;;;;30.00;11.50;;;5.80;99.90;;;;;;5032705;28;20311;-86
2023/01/03 07:17:16;;;;;;;32.73;11.67;;;5.90;99.90;;;;;;5021433;28;20233;-85
2023/01/03 07:19:44;;;;;;;29.17;10.17;;;5.90;99.90;;;;;;5025210;28;20222;-85
2023/01/03 07:22:12;;;;;;;33.10;11.30;;;5.90;99.90;;;;;;5027085;28;20666;-86
2023/01/03 07:24:39;;;;;;;35.53;12.10;;;6.00;99.90;;;;;;5044409;28;20224;-86
2023/01/03 07:27:06;;;;;;;33.70;11.50;;;6.20;99.90;;;;;;5043801;28;20212;-86
2023/01/03 07:29:33;;;;;;;32.90;10.77;;;6.00;99.90;;;;;;5043315;28;20212;-86
2023/01/03 07:32:00;;;;;;;27.53;10.30;;;6.20;99.90;;;;;;5016545;28;20237;-86
2023/01/03 07:34:27;;;;;;;25.93;10.43;;;6.30;99.90;;;;;;5025794;28;20821;-86
2023/01/03 07:36:54;;;;;;;28.30;10.30;;;6.30;99.90;;;;;;5034661;28;20240;-85
2023/01/03 07:39:24;;;;;;;29.60;9.97;;;6.30;99.90;;;;;;5029757;28;20199;-85
2023/01/03 07:44:35;;;;;;;26.07;9.53;;;6.20;99.90;;;;;;5035638;28;20316;-84
2023/01/03 07:47:03;;;;;;;26.00;9.43;;;;;;;;;;5046067;28;20711;-82
2023/01/03 07:49:30;;;;;;;32.73;11.43;;;6.00;99.90;;;;;;5032837;28;20207;-82
2023/01/03 07:51:58;;;;;;;25.40;8.73;;;6.00;99.90;;;;;;5021503;28;20243;-82
2023/01/03 07:54:28;;;;;;;23.73;9.73;;;6.00;99.90;;;;;;5025619;28;20199;-83
2023/01/03 07:56:56;;;;;;;25.87;9.43;;;6.00;99.90;;;;;;5028615;28;20207;-83
2023/01/03 07:59:23;;;;;;;27.53;11.23;;;;;;;;;;5038710;28;20207;-83
2023/01/03 08:01:51;;;;;;;25.03;9.10;;;6.00;99.90;;;;;;5048103;28;20234;-84
2023/01/03 08:04:19;;;;;;;33.40;11.10;;;6.00;99.90;;;;;;5031294;28;20232;-83
2023/01/03 08:06:46;;;;;;;26.40;10.53;;;6.00;99.90;;;;;;5054802;28;20216;-84
2023/01/03 08:17:30;;;;;;;26.13;9.93;;;6.40;99.90;;;;;;5036172;28;20668;-84
2023/01/03 08:19:57;;;;;;;24.03;9.67;;;6.70;99.90;;;;;;5026540;28;20209;-84
2023/01/03 08:22:24;;;;;;;21.97;8.93;;;6.70;99.90;;;;;;5024577;28;20223;-84
2023/01/03 08:24:52;;;;;;;22.47;8.83;;;6.80;99.90;;;;;;5044249;28;20223;-85
2023/01/03 08:27:20;;;;;;;17.73;6.73;;;6.90;99.90;;;;;;5041423;28;20193;-83
2023/01/03 08:29:47;;;;;;;21.50;7.77;;;7.20;99.90;;;;;;5031736;28;20223;-83
2023/01/03 08:32:15;;;;;;;20.63;7.50;;;7.20;99.90;;;;;;5035569;28;20256;-83
2023/01/03 08:34:43;;;;;;;15.13;6.87;;;7.30;99.90;;;;;;5023645;28;20209;-82
2023/01/03 08:37:12;;;;;;;20.13;6.87;;;7.40;99.90;;;;;;5023591;28;20241;-82
2023/01/03 08:39:43;;;;;;;16.67;5.33;;;7.50;99.90;;;;;;5023992;28;20214;-83
2023/01/03 08:42:15;;;;;;;15.87;5.97;;;7.60;99.90;;;;;;5022826;28;20307;-83
2023/01/03 08:44:44;;;;;;;19.40;6.70;;;9.50;99.90;;;;;;5031642;28;20240;-83
2023/01/03 08:47:13;;;;;;;18.87;6.93;;;7.70;99.90;;;;;;5045026;28;20205;-84
2023/01/03 08:49:40;;;;;;;20.10;6.17;;;7.70;99.90;;;;;;5038494;28;20233;-83
2023/01/03 08:52:08;;;;;;;16.97;6.53;;;7.80;99.90;;;;;;5039536;28;20225;-83
2023/01/03 08:54:35;;;;;;;20.27;7.10;;;7.90;99.90;;;;;;5030765;28;20210;-85
2023/01/03 08:57:02;;;;;;;19.87;6.83;;;7.80;99.90;;;;;;5021636;28;20216;-85
2023/01/03 08:59:29;;;;;;;17.20;6.30;;;7.90;99.90;;;;;;5040579;28;20225;-85
2023/01/03 09:01:59;;;;;;;16.53;6.13;;;8.00;99.90;;;;;;5033221;28;20267;-84
2023/01/03 09:04:26;;;;;;;17.07;6.37;;;8.10;99.90;;;;;;5049401;28;20307;-85
2023/01/03 09:06:53;;;;;;;14.37;5.67;;;8.20;99.90;;;;;;5034519;28;20206;-84
2023/01/03 09:09:21;;;;;;;16.30;6.20;;;8.30;99.90;;;;;;5020708;28;20228;-84
2023/01/03 09:11:47;;;;;;;19.60;6.47;;;8.40;99.90;;;;;;5039280;28;20224;-84
2023/01/03 09:14:14;;;;;;;16.23;6.60;;;8.50;99.90;;;;;;5040060;28;20228;-84
2023/01/03 09:16:42;;;;;;;16.00;5.80;;;8.50;99.90;;;;;;5030384;28;20218;-83
2023/01/03 09:19:27;;;;;;;23.07;7.30;;;8.60;99.90;;;;;;5020970;28;20323;-84
2023/01/03 09:21:58;;;;;;;18.23;6.50;;;7.70;99.90;;;;;;5044383;28;20547;-82
2023/01/03 09:24:25;;;;;;;16.23;6.57;;;8.80;99.90;;;;;;5055810;28;20221;-83
2023/01/03 09:26:52;;;;;;;20.33;6.77;;;8.70;99.90;;;;;;5031719;28;20208;-83
2023/01/03 09:29:20;;;;;;;14.47;5.67;;;9.10;99.90;;;;;;5034893;28;20273;-84
2023/01/03 09:31:47;;;;;;;16.10;5.80;;;9.00;99.90;;;;;;5052335;28;20229;-83
2023/01/03 09:34:22;;;;;;;16.10;5.80;;;9.10;99.90;;;;;;5034666;28;20236;-84
2023/01/03 09:37:00;;;;;;;17.20;5.67;;;9.10;99.90;;;;;;5056196;28;20228;-85
2023/01/03 09:39:39;;;;;;;15.03;5.53;;;9.10;99.90;;;;;;5038410;28;20208;-85
2023/01/03 09:45:13;;;;;;;17.53;6.73;;;9.10;99.90;;;;;;5038772;28;20359;-84
2023/01/03 09:47:47;;;;;;;16.13;5.80;;;9.00;99.90;;;;;;5043253;28;20216;-85
2023/01/03 09:50:38;;;;;;;12.47;5.47;;;9.00;99.90;;;;;;5037601;28;20235;-83
2023/01/03 10:05:14;;;;;;;12.93;5.43;;;9.10;99.90;;;;;;5028340;28;20236;-87
2023/01/03 10:08:07;;;;;;;15.23;5.73;;;9.20;99.90;;;;;;5057787;28;20205;-85
2023/01/03 10:10:51;;;;;;;15.07;5.20;;;9.40;99.90;;;;;;5044056;28;20236;-86
2023/01/03 10:13:42;;;;;;;12.67;4.97;;;9.50;99.90;;;;;;5062720;28;20288;-88
2023/01/03 10:16:17;;;;;;;13.13;4.57;;;9.60;99.90;;;;;;5054835;28;20197;-85
2023/01/03 10:19:02;;;;;;;11.43;4.57;;;9.70;99.90;;;;;;5052607;28;20245;-88
2023/01/03 10:21:46;;;;;;;11.10;4.60;;;9.80;99.90;;;;;;5063634;28;20209;-88
2023/01/03 10:24:24;;;;;;;14.30;4.73;;;9.90;99.90;;;;;;5056297;28;20220;-88
2023/01/03 10:26:56;;;;;;;10.40;4.50;;;10.00;99.90;;;;;;5050515;28;20246;-89
2023/01/03 10:29:24;;;;;;;13.10;4.47;;;10.00;99.90;;;;;;5064692;28;20213;-89
2023/01/03 10:32:06;;;;;;;10.30;4.43;;;10.00;99.90;;;;;;5045136;28;20271;-86
2023/01/03 10:34:33;;;;;;;12.73;4.90;;;10.10;99.90;;;;;;5042379;28;20193;-88
2023/01/03 10:37:17;;;;;;;13.83;4.10;;;10.50;99.90;;;;;;5043467;28;20213;-89
2023/01/03 10:40:05;;;;;;;9.73;4.10;;;10.70;99.90;;;;;;5062231;28;20177;-89
2023/01/03 10:42:36;;;;;;;14.53;4.43;;;10.70;99.90;;;;;;5065434;28;20250;-88
2023/01/03 10:45:06;;;;;;;11.70;4.47;;;10.60;99.90;;;;;;5050968;28;20212;-87
2023/01/03 10:47:42;;;;;;;11.17;3.90;;;10.70;99.90;;;;;;5057472;28;20217;-87
2023/01/03 10:50:21;;;;;;;12.63;3.93;;;10.70;99.90;;;;;;5053908;28;20304;-83
2023/01/03 10:53:08;;;;;;;10.70;4.00;;;10.70;99.90;;;;;;5038303;28;20663;-83
2023/01/03 10:55:36;;;;;;;10.73;4.40;;;10.70;99.90;;;;;;5055358;28;20204;-84
2023/01/03 10:58:28;;;;;;;12.60;4.13;;;10.60;99.90;;;;;;5047875;28;20215;-87
2023/01/03 11:01:11;;;;;;;11.70;4.23;;;10.60;99.90;;;;;;5045861;28;20221;-84
2023/01/03 11:03:43;;;;;;;9.63;4.17;;;10.60;99.90;;;;;;5051686;28;20685;-85
2023/01/03 11:06:15;;;;;;;12.37;4.73;;;10.60;99.90;;;;;;5033762;28;20709;-86
2023/01/03 11:08:44;;;;;;;17.20;5.03;;;10.60;99.90;;;;;;5026226;28;20226;-85
2023/01/03 11:11:29;;;;;;;13.17;4.43;;;10.60;99.90;;;;;;5021044;28;20646;-85
2023/01/03 11:14:15;;;;;;;15.10;4.97;;;10.70;99.90;;;;;;5033682;28;20293;-86
2023/01/03 11:16:42;;;;;;;13.30;5.03;;;10.70;99.90;;;;;;5033002;28;20217;-86
2023/01/03 11:19:18;;;;;;;15.40;5.63;;;10.70;99.90;;;;;;5026610;28;20212;-87
2023/01/03 11:21:49;;;;;;;14.73;5.17;;;10.70;99.90;;;;;;5051818;28;20225;-87
2023/01/03 11:24:31;;;;;;;15.60;5.43;;;8.50;99.90;;;;;;5021943;28;20329;-88
2023/01/03 11:27:07;;;;;;;12.53;4.70;;;10.80;99.90;;;;;;5017313;28;20223;-87
2023/01/03 11:30:00;;;;;;;15.50;4.83;;;10.80;99.90;;;;;;5032670;28;20201;-88
2023/01/03 11:32:41;;;;;;;15.87;5.10;;;10.80;99.90;;;;;;5018228;28;20245;-86
2023/01/03 11:35:34;;;;;;;14.43;4.67;;;10.70;99.90;;;;;;5031779;28;20687;-86
2023/01/03 11:38:19;;;;;;;13.73;4.90;;;10.70;99.90;;;;;;5005334;28;20267;-87
2023/01/03 11:41:00;;;;;;;14.83;5.23;;;10.70;99.90;;;;;;5058640;28;20221;-87
2023/01/03 11:43:40;;;;;;;14.27;5.27;;;10.70;99.90;;;;;;5028344;28;20226;-86
2023/01/03 11:46:21;;;;;;;18.50;4.90;;;10.80;99.90;;;;;;5050247;28;20860;-86
2023/01/03 11:49:09;;;;;;;16.23;5.20;;;10.80;99.90;;;;;;5027464;28;20263;-86
2023/01/03 11:51:42;;;;;;;12.47;4.37;;;10.80;99.90;;;;;;5028096;28;20729;-87
2023/01/03 11:54:34;;;;;;;16.50;4.53;;;10.90;99.90;;;;;;5018322;28;20713;-87
2023/01/03 11:57:11;;;;;;;12.57;4.17;;;11.00;99.90;;;;;;5045408;28;20300;-86
2023/01/03 11:59:52;;;;;;;12.97;3.73;;;11.20;99.90;;;;;;5029143;28;20585;-85
2023/01/03 12:02:58;;;;;;;15.43;4.67;;;11.40;99.90;;;;;;5048528;28;20201;-86
2023/01/03 12:05:43;;;;;;;12.63;3.90;;;11.40;99.90;;;;;;5041994;28;20229;-86
2023/01/03 12:08:52;;;;;;;12.03;3.67;;;11.50;99.90;;;;;;5023389;28;20214;-86
2023/01/03 12:11:40;;;;;;;18.40;4.83;;;11.60;99.90;;;;;;5005477;28;20287;-87
2023/01/03 12:14:13;;;;;;;16.37;4.30;;;11.70;99.90;;;;;;5020828;28;20238;-87
2023/01/03 12:16:45;;;;;;;16.33;3.97;;;11.70;99.90;;;;;;5031598;28;20288;-87
2023/01/03 12:19:25;;;;;;;12.63;3.90;;;11.70;99.90;;;;;;5027046;28;20825;-87
2023/01/03 12:21:58;;;;;;;14.47;4.20;;;11.70;99.90;;;;;;5035766;28;20232;-88
2023/01/03 12:24:32;;;;;;;12.40;3.57;;;11.80;99.90;;;;;;5030199;28;20209;-88
2023/01/03 12:27:09;;;;;;;13.43;3.97;;;11.70;99.90;;;;;;5047378;28;20218;-86
2023/01/03 12:29:56;;;;;;;12.37;3.23;;;11.90;99.90;;;;;;5044039;28;20204;-88
2023/01/03 12:32:28;;;;;;;14.73;4.03;;;11.90;99.90;;;;;;5023103;28;20866;-86
2023/01/03 12:35:15;;;;;;;13.93;4.27;;;11.90;99.90;;;;;;5023319;28;20197;-86
2023/01/03 12:37:45;;;;;;;13.17;3.40;;;11.90;99.90;;;;;;5025501;28;20208;-87
2023/01/03 12:40:20;;;;;;;14.60;3.77;;;12.00;99.90;;;;;;5039051;28;20316;-86
2023/01/03 12:42:57;;;;;;;14.13;3.97;;;12.00;99.90;;;;;;5030828;28;20215;-87
2023/01/03 12:45:38;;;;;;;11.43;3.53;;;12.00;99.90;;;;;;5037009;28;20221;-86
2023/01/03 12:48:17;;;;;;;13.87;3.93;;;12.00;99.90;;;;;;5023751;28;20208;-86
2023/01/03 12:50:50;;;;;;;12.23;3.67;;;12.00;99.90;;;;;;5035019;28;20236;-88
2023/01/03 12:53:24;;;;;;;12.30;3.90;;;12.00;99.90;;;;;;5044060;28;20206;-86
2023/01/03 12:56:14;;;;;;;15.10;3.80;;;12.00;99.90;;;;;;5022642;28;20300;-86
2023/01/03 12:58:51;;;;;;;9.03;3.40;;;11.90;99.90;;;;;;5037859;28;20215;-86
2023/01/03 13:01:25;;;;;;;13.33;3.73;;;11.90;99.90;;;;;;5041133;28;20220;-86
2023/01/03 13:03:55;;;;;;;16.20;4.10;;;11.90;99.90;;;;;;5042061;28;20881;-86
2023/01/03 13:06:28;;;;;;;13.63;3.80;;;11.90;99.90;;;;;;5016089;28;20271;-84
2023/01/03 13:09:00;;;;;;;10.07;3.37;;;11.90;99.90;;;;;;5046150;28;20304;-84
2023/01/03 13:11:31;;;;;;;14.53;3.60;;;11.80;99.90;;;;;;5042816;28;20233;-84
2023/01/03 13:14:04;;;;;;;10.70;3.33;;;11.80;99.90;;;;;;5040845;28;20197;-86
2023/01/03 13:16:43;;;;;;;14.50;3.77;;;11.80;99.90;;;;;;5032398;28;20229;-84
2023/01/03 13:19:49;;;;;;;14.70;3.53;;;11.70;99.90;;;;;;5046148;28;20205;-86
2023/01/03 13:22:32;;;;;;;15.43;3.90;;;11.70;99.90;;;;;;5041730;28;20300;-84
2023/01/03 13:25:38;;;;;;;10.67;3.33;;;11.60;99.90;;;;;;5047850;28;20216;-84
2023/01/03 13:28:28;;;;;;;14.77;3.77;;;11.60;99.90;;;;;;5051793;28;20201;-85
2023/01/03 13:31:28;;;;;;;16.43;5.13;;;11.60;99.90;;;;;;5023638;28;20304;-85
2023/01/03 13:33:58;;;;;;;12.83;3.80;;;11.60;99.90;;;;;;5020915;28;20228;-84
2023/01/03 13:36:25;;;;;;;15.63;4.27;;;11.50;99.90;;;;;;5036129;28;20202;-84
2023/01/03 13:38:54;;;;;;;9.63;3.23;;;11.50;99.90;;;;;;5036231;28;20247;-83
2023/01/03 13:41:35;;;;;;;16.00;3.70;;;11.50;99.90;;;;;;5030466;28;21027;-84
2023/01/03 13:44:08;;;;;;;12.13;3.67;;;11.50;99.90;;;;;;5044506;28;20225;-84
2023/01/03 13:46:42;;;;;;;13.33;4.40;;;11.40;99.90;;;;;;5021035;28;20230;-86
2023/01/03 13:49:17;;;;;;;17.20;4.17;;;11.40;99.90;;;;;;5021437;28;20216;-86
2023/01/03 13:51:52;;;;;;;13.07;4.20;;;12.30;99.90;;;;;;5019519;28;20238;-84
2023/01/03 13:54:55;;;;;;;15.03;4.10;;;11.50;99.90;;;;;;5041083;28;20224;-84
2023/01/03 13:57:53;;;;;;;12.10;3.80;;;11.40;99.90;;;;;;5010451;28;20284;-88
2023/01/03 14:00:23;;;;;;;12.90;3.83;;;11.40;99.90;;;;;;5035470;28;20396;-87
2023/01/03 14:03:26;;;;;;;12.83;4.23;;;11.20;99.90;;;;;;5024281;28;20220;-88
2023/01/03 14:06:16;;;;;;;12.77;3.83;;;11.20;99.90;;;;;;5026692;28;20213;-87
2023/01/03 14:09:21;;;;;;;13.67;4.23;;;11.20;99.90;;;;;;5040165;28;20216;-89
2023/01/03 14:12:16;;;;;;;14.23;4.23;;;11.10;99.90;;;;;;5025783;28;20226;-89
2023/01/03 14:14:53;;;;;;;10.83;3.63;;;11.00;99.90;;;;;;5052695;28;20655;-89
2023/01/03 14:17:25;;;;;;;14.53;4.03;;;10.90;99.90;;;;;;5052879;28;20207;-89
2023/01/03 14:19:56;;;;;;;12.13;3.47;;;10.80;99.90;;;;;;5030660;28;20214;-87
2023/01/03 14:22:26;;;;;;;10.40;3.63;;;10.80;99.90;;;;;;5031906;28;20213;-88